sensor_id;sensor_type;location;lat;lon;timestamp;P1;durP1;ratioP1;P2;durP2;ratioP2
53710;SDS011;39605;52.704;6.752;2023-11-18T00:01:54;29.38;;;23.35;;
53710;SDS011;39605;52.704;6.752;2023-11-18T00:04:20;34.97;;;26.02;;
53710;SDS011;39605;52.704;6.752;2023-11-18T00:06:47;31.45;;;23.98;;
53710;SDS011;39605;52.704;6.752;2023-11-18T00:09:13;27.83;;;22.58;;
53710;SDS011;39605;52.704;6.752;2023-11-18T00:11:42;31.88;;;23.83;;
53710;SDS011;39605;52.704;6.752;2023-11-18T00:14:09;25.13;;;21.42;;
53710;SDS011;39605;52.704;6.752;2023-11-18T00:16:38;33.25;;;23.50;;
53710;SDS011;39605;52.704;6.752;2023-11-18T00:19:04;28.45;;;22.20;;
53710;SDS011;39605;52.704;6.752;2023-11-18T00:21:31;34.70;;;26.35;;
53710;SDS011;39605;52.704;6.752;2023-11-18T00:23:57;25.67;;;21.63;;
53710;SDS011;39605;52.704;6.752;2023-11-18T00:26:23;33.00;;;24.50;;
53710;SDS011;39605;52.704;6.752;2023-11-18T00:28:50;29.58;;;22.98;;
53710;SDS011;39605;52.704;6.752;2023-11-18T00:31:17;32.05;;;24.15;;
53710;SDS011;39605;52.704;6.752;2023-11-18T00:33:43;29.90;;;22.27;;
53710;SDS011;39605;52.704;6.752;2023-11-18T00:36:09;30.42;;;22.13;;
53710;SDS011;39605;52.704;6.752;2023-11-18T00:38:35;28.60;;;21.60;;
53710;SDS011;39605;52.704;6.752;2023-11-18T00:41:01;28.50;;;21.58;;
53710;SDS011;39605;52.704;6.752;2023-11-18T00:43:27;27.27;;;21.05;;
53710;SDS011;39605;52.704;6.752;2023-11-18T00:45:53;34.13;;;23.75;;
53710;SDS011;39605;52.704;6.752;2023-11-18T00:48:19;30.02;;;23.08;;
53710;SDS011;39605;52.704;6.752;2023-11-18T00:50:45;33.35;;;24.02;;
53710;SDS011;39605;52.704;6.752;2023-11-18T00:53:11;30.42;;;22.63;;
53710;SDS011;39605;52.704;6.752;2023-11-18T00:55:37;36.15;;;26.48;;
53710;SDS011;39605;52.704;6.752;2023-11-18T00:58:03;30.88;;;22.92;;
53710;SDS011;39605;52.704;6.752;2023-11-18T01:00:30;34.05;;;25.40;;
53710;SDS011;39605;52.704;6.752;2023-11-18T01:02:57;32.53;;;23.60;;
53710;SDS011;39605;52.704;6.752;2023-11-18T01:05:23;44.25;;;28.02;;
53710;SDS011;39605;52.704;6.752;2023-11-18T01:07:49;44.00;;;28.65;;
53710;SDS011;39605;52.704;6.752;2023-11-18T01:10:15;41.10;;;28.13;;
53710;SDS011;39605;52.704;6.752;2023-11-18T01:12:41;47.13;;;30.65;;
53710;SDS011;39605;52.704;6.752;2023-11-18T01:15:10;43.13;;;29.88;;
53710;SDS011;39605;52.704;6.752;2023-11-18T01:17:38;41.65;;;27.50;;
53710;SDS011;39605;52.704;6.752;2023-11-18T01:20:04;37.95;;;26.20;;
53710;SDS011;39605;52.704;6.752;2023-11-18T01:22:35;49.63;;;29.67;;
53710;SDS011;39605;52.704;6.752;2023-11-18T01:25:01;43.13;;;28.10;;
53710;SDS011;39605;52.704;6.752;2023-11-18T01:27:28;45.47;;;28.77;;
53710;SDS011;39605;52.704;6.752;2023-11-18T01:29:54;41.80;;;28.52;;
53710;SDS011;39605;52.704;6.752;2023-11-18T01:32:20;45.67;;;30.40;;
53710;SDS011;39605;52.704;6.752;2023-11-18T01:34:46;45.47;;;30.20;;
53710;SDS011;39605;52.704;6.752;2023-11-18T01:37:18;42.95;;;29.15;;
53710;SDS011;39605;52.704;6.752;2023-11-18T01:39:46;47.55;;;31.55;;
53710;SDS011;39605;52.704;6.752;2023-11-18T01:42:12;44.08;;;29.98;;
53710;SDS011;39605;52.704;6.752;2023-11-18T01:44:38;47.90;;;32.50;;
53710;SDS011;39605;52.704;6.752;2023-11-18T01:47:05;63.53;;;34.33;;
53710;SDS011;39605;52.704;6.752;2023-11-18T01:49:35;58.47;;;35.00;;
53710;SDS011;39605;52.704;6.752;2023-11-18T01:52:05;65.72;;;37.00;;
53710;SDS011;39605;52.704;6.752;2023-11-18T01:54:33;72.68;;;38.33;;
53710;SDS011;39605;52.704;6.752;2023-11-18T01:56:59;75.82;;;38.97;;
53710;SDS011;39605;52.704;6.752;2023-11-18T01:59:28;69.85;;;37.33;;
53710;SDS011;39605;52.704;6.752;2023-11-18T02:01:55;89.68;;;37.30;;
53710;SDS011;39605;52.704;6.752;2023-11-18T02:04:24;70.32;;;37.83;;
53710;SDS011;39605;52.704;6.752;2023-11-18T02:06:50;66.78;;;36.05;;
53710;SDS011;39605;52.704;6.752;2023-11-18T02:09:18;129.38;;;38.38;;
53710;SDS011;39605;52.704;6.752;2023-11-18T02:11:53;156.68;;;40.45;;
53710;SDS011;39605;52.704;6.752;2023-11-18T02:14:20;159.45;;;38.63;;
53710;SDS011;39605;52.704;6.752;2023-11-18T02:16:48;447.73;;;58.25;;
53710;SDS011;39605;52.704;6.752;2023-11-18T02:19:24;112.70;;;36.72;;
53710;SDS011;39605;52.704;6.752;2023-11-18T02:21:51;242.63;;;41.05;;
53710;SDS011;39605;52.704;6.752;2023-11-18T02:24:28;265.55;;;43.60;;
53710;SDS011;39605;52.704;6.752;2023-11-18T02:26:59;272.45;;;46.10;;
53710;SDS011;39605;52.704;6.752;2023-11-18T02:29:26;101.20;;;33.13;;
53710;SDS011;39605;52.704;6.752;2023-11-18T02:31:55;607.88;;;77.28;;
53710;SDS011;39605;52.704;6.752;2023-11-18T02:34:25;137.15;;;35.08;;
53710;SDS011;39605;52.704;6.752;2023-11-18T02:36:53;102.85;;;36.35;;
53710;SDS011;39605;52.704;6.752;2023-11-18T02:39:22;275.55;;;49.00;;
53710;SDS011;39605;52.704;6.752;2023-11-18T02:41:51;172.40;;;37.10;;
53710;SDS011;39605;52.704;6.752;2023-11-18T02:44:18;100.22;;;34.20;;
53710;SDS011;39605;52.704;6.752;2023-11-18T02:46:45;212.70;;;39.30;;
53710;SDS011;39605;52.704;6.752;2023-11-18T02:49:11;75.43;;;33.88;;
53710;SDS011;39605;52.704;6.752;2023-11-18T02:51:37;72.55;;;33.78;;
53710;SDS011;39605;52.704;6.752;2023-11-18T02:54:08;91.35;;;33.78;;
53710;SDS011;39605;52.704;6.752;2023-11-18T02:56:38;79.40;;;35.83;;
53710;SDS011;39605;52.704;6.752;2023-11-18T02:59:05;156.20;;;37.85;;
53710;SDS011;39605;52.704;6.752;2023-11-18T03:01:34;68.53;;;34.97;;
53710;SDS011;39605;52.704;6.752;2023-11-18T03:04:00;79.82;;;35.80;;
53710;SDS011;39605;52.704;6.752;2023-11-18T03:06:27;67.72;;;36.70;;
53710;SDS011;39605;52.704;6.752;2023-11-18T03:08:53;280.40;;;56.95;;
53710;SDS011;39605;52.704;6.752;2023-11-18T03:11:19;154.18;;;42.45;;
53710;SDS011;39605;52.704;6.752;2023-11-18T03:13:45;89.07;;;38.13;;
53710;SDS011;39605;52.704;6.752;2023-11-18T03:16:11;77.18;;;37.20;;
53710;SDS011;39605;52.704;6.752;2023-11-18T03:18:41;58.25;;;34.13;;
53710;SDS011;39605;52.704;6.752;2023-11-18T03:21:14;63.47;;;36.08;;
53710;SDS011;39605;52.704;6.752;2023-11-18T03:23:40;56.20;;;32.40;;
53710;SDS011;39605;52.704;6.752;2023-11-18T03:26:07;55.28;;;33.72;;
53710;SDS011;39605;52.704;6.752;2023-11-18T03:28:34;54.95;;;31.95;;
53710;SDS011;39605;52.704;6.752;2023-11-18T03:31:02;62.10;;;33.22;;
53710;SDS011;39605;52.704;6.752;2023-11-18T03:33:29;56.05;;;32.92;;
53710;SDS011;39605;52.704;6.752;2023-11-18T03:35:55;54.22;;;33.20;;
53710;SDS011;39605;52.704;6.752;2023-11-18T03:38:21;57.88;;;33.85;;
53710;SDS011;39605;52.704;6.752;2023-11-18T03:40:47;61.17;;;33.10;;
53710;SDS011;39605;52.704;6.752;2023-11-18T03:43:13;51.78;;;31.08;;
53710;SDS011;39605;52.704;6.752;2023-11-18T03:45:40;54.35;;;31.88;;
53710;SDS011;39605;52.704;6.752;2023-11-18T03:48:06;60.10;;;32.05;;
53710;SDS011;39605;52.704;6.752;2023-11-18T03:50:33;51.58;;;31.02;;
53710;SDS011;39605;52.704;6.752;2023-11-18T03:52:59;59.53;;;33.70;;
53710;SDS011;39605;52.704;6.752;2023-11-18T03:55:26;51.20;;;28.75;;
53710;SDS011;39605;52.704;6.752;2023-11-18T03:57:52;56.28;;;31.63;;
53710;SDS011;39605;52.704;6.752;2023-11-18T04:00:19;54.25;;;33.08;;
53710;SDS011;39605;52.704;6.752;2023-11-18T04:02:45;53.22;;;33.45;;
53710;SDS011;39605;52.704;6.752;2023-11-18T04:05:12;53.83;;;32.28;;
53710;SDS011;39605;52.704;6.752;2023-11-18T04:07:38;54.88;;;32.67;;
53710;SDS011;39605;52.704;6.752;2023-11-18T04:10:08;59.72;;;33.72;;
53710;SDS011;39605;52.704;6.752;2023-11-18T04:12:36;55.08;;;32.97;;
53710;SDS011;39605;52.704;6.752;2023-11-18T04:15:03;55.55;;;32.47;;
53710;SDS011;39605;52.704;6.752;2023-11-18T04:17:30;75.07;;;36.53;;
53710;SDS011;39605;52.704;6.752;2023-11-18T04:19:56;54.13;;;32.42;;
53710;SDS011;39605;52.704;6.752;2023-11-18T04:22:22;55.92;;;31.27;;
53710;SDS011;39605;52.704;6.752;2023-11-18T04:24:48;57.95;;;33.70;;
53710;SDS011;39605;52.704;6.752;2023-11-18T04:27:15;55.33;;;29.55;;
53710;SDS011;39605;52.704;6.752;2023-11-18T04:29:41;60.88;;;33.88;;
53710;SDS011;39605;52.704;6.752;2023-11-18T04:32:07;69.10;;;33.80;;
53710;SDS011;39605;52.704;6.752;2023-11-18T04:34:37;57.90;;;33.10;;
53710;SDS011;39605;52.704;6.752;2023-11-18T04:37:03;57.17;;;32.40;;
53710;SDS011;39605;52.704;6.752;2023-11-18T04:39:33;57.78;;;31.23;;
53710;SDS011;39605;52.704;6.752;2023-11-18T04:41:59;60.42;;;34.00;;
53710;SDS011;39605;52.704;6.752;2023-11-18T04:44:27;56.17;;;34.42;;
53710;SDS011;39605;52.704;6.752;2023-11-18T04:46:56;67.07;;;35.60;;
53710;SDS011;39605;52.704;6.752;2023-11-18T04:49:22;57.83;;;32.72;;
53710;SDS011;39605;52.704;6.752;2023-11-18T04:51:49;60.40;;;33.53;;
53710;SDS011;39605;52.704;6.752;2023-11-18T04:54:15;54.08;;;31.05;;
53710;SDS011;39605;52.704;6.752;2023-11-18T04:56:41;74.40;;;35.42;;
53710;SDS011;39605;52.704;6.752;2023-11-18T04:59:07;62.42;;;34.20;;
53710;SDS011;39605;52.704;6.752;2023-11-18T05:01:33;62.88;;;33.80;;
53710;SDS011;39605;52.704;6.752;2023-11-18T05:03:59;72.68;;;35.28;;
53710;SDS011;39605;52.704;6.752;2023-11-18T05:06:25;68.80;;;36.03;;
53710;SDS011;39605;52.704;6.752;2023-11-18T05:08:52;67.57;;;36.15;;
53710;SDS011;39605;52.704;6.752;2023-11-18T05:11:18;72.80;;;36.55;;
53710;SDS011;39605;52.704;6.752;2023-11-18T05:13:44;67.35;;;36.92;;
53710;SDS011;39605;52.704;6.752;2023-11-18T05:16:10;67.60;;;35.35;;
53710;SDS011;39605;52.704;6.752;2023-11-18T05:18:36;75.22;;;38.63;;
53710;SDS011;39605;52.704;6.752;2023-11-18T05:21:04;75.47;;;38.28;;
53710;SDS011;39605;52.704;6.752;2023-11-18T05:23:30;64.07;;;35.90;;
53710;SDS011;39605;52.704;6.752;2023-11-18T05:25:57;66.13;;;36.60;;
53710;SDS011;39605;52.704;6.752;2023-11-18T05:28:26;76.68;;;39.50;;
53710;SDS011;39605;52.704;6.752;2023-11-18T05:30:52;78.93;;;39.03;;
53710;SDS011;39605;52.704;6.752;2023-11-18T05:33:23;72.25;;;39.80;;
53710;SDS011;39605;52.704;6.752;2023-11-18T05:35:49;78.63;;;40.65;;
53710;SDS011;39605;52.704;6.752;2023-11-18T05:38:15;70.93;;;38.42;;
53710;SDS011;39605;52.704;6.752;2023-11-18T05:40:44;76.65;;;39.13;;
53710;SDS011;39605;52.704;6.752;2023-11-18T05:43:20;68.28;;;37.72;;
53710;SDS011;39605;52.704;6.752;2023-11-18T05:45:47;74.93;;;41.47;;
53710;SDS011;39605;52.704;6.752;2023-11-18T05:48:31;71.43;;;38.10;;
53710;SDS011;39605;52.704;6.752;2023-11-18T05:50:57;83.93;;;42.38;;
53710;SDS011;39605;52.704;6.752;2023-11-18T05:53:23;73.15;;;41.17;;
53710;SDS011;39605;52.704;6.752;2023-11-18T05:55:49;78.72;;;41.95;;
53710;SDS011;39605;52.704;6.752;2023-11-18T05:58:16;66.35;;;34.75;;
53710;SDS011;39605;52.704;6.752;2023-11-18T06:00:42;78.88;;;40.22;;
53710;SDS011;39605;52.704;6.752;2023-11-18T06:03:08;82.47;;;42.25;;
53710;SDS011;39605;52.704;6.752;2023-11-18T06:05:34;81.95;;;40.05;;
53710;SDS011;39605;52.704;6.752;2023-11-18T06:08:00;86.63;;;43.22;;
53710;SDS011;39605;52.704;6.752;2023-11-18T06:10:26;88.07;;;42.65;;
53710;SDS011;39605;52.704;6.752;2023-11-18T06:12:53;79.32;;;41.95;;
53710;SDS011;39605;52.704;6.752;2023-11-18T06:15:20;95.78;;;42.55;;
53710;SDS011;39605;52.704;6.752;2023-11-18T06:17:47;81.30;;;41.25;;
53710;SDS011;39605;52.704;6.752;2023-11-18T06:20:13;82.22;;;34.80;;
53710;SDS011;39605;52.704;6.752;2023-11-18T06:22:42;88.05;;;43.97;;
53710;SDS011;39605;52.704;6.752;2023-11-18T06:25:08;94.97;;;45.08;;
53710;SDS011;39605;52.704;6.752;2023-11-18T06:27:34;94.05;;;44.20;;
53710;SDS011;39605;52.704;6.752;2023-11-18T06:30:01;95.50;;;44.83;;
53710;SDS011;39605;52.704;6.752;2023-11-18T06:32:27;102.85;;;44.67;;
53710;SDS011;39605;52.704;6.752;2023-11-18T06:34:53;99.53;;;44.35;;
53710;SDS011;39605;52.704;6.752;2023-11-18T06:37:20;93.97;;;46.33;;
53710;SDS011;39605;52.704;6.752;2023-11-18T06:39:46;108.85;;;47.13;;
53710;SDS011;39605;52.704;6.752;2023-11-18T06:42:14;92.65;;;43.22;;
53710;SDS011;39605;52.704;6.752;2023-11-18T06:44:40;97.00;;;45.90;;
53710;SDS011;39605;52.704;6.752;2023-11-18T06:47:06;92.43;;;43.78;;
53710;SDS011;39605;52.704;6.752;2023-11-18T06:49:32;92.78;;;44.42;;
53710;SDS011;39605;52.704;6.752;2023-11-18T06:52:02;86.53;;;41.85;;
53710;SDS011;39605;52.704;6.752;2023-11-18T06:54:28;82.85;;;40.30;;
53710;SDS011;39605;52.704;6.752;2023-11-18T06:56:54;73.25;;;36.88;;
53710;SDS011;39605;52.704;6.752;2023-11-18T06:59:21;81.32;;;39.28;;
53710;SDS011;39605;52.704;6.752;2023-11-18T07:01:47;77.10;;;38.50;;
53710;SDS011;39605;52.704;6.752;2023-11-18T07:04:14;66.72;;;35.10;;
53710;SDS011;39605;52.704;6.752;2023-11-18T07:06:40;65.15;;;35.65;;
53710;SDS011;39605;52.704;6.752;2023-11-18T07:09:07;71.18;;;36.15;;
53710;SDS011;39605;52.704;6.752;2023-11-18T07:11:42;63.55;;;34.47;;
53710;SDS011;39605;52.704;6.752;2023-11-18T07:14:12;58.53;;;35.42;;
53710;SDS011;39605;52.704;6.752;2023-11-18T07:16:39;70.15;;;35.17;;
53710;SDS011;39605;52.704;6.752;2023-11-18T07:19:05;65.10;;;36.30;;
53710;SDS011;39605;52.704;6.752;2023-11-18T07:21:32;71.50;;;37.65;;
53710;SDS011;39605;52.704;6.752;2023-11-18T07:23:58;67.07;;;36.80;;
53710;SDS011;39605;52.704;6.752;2023-11-18T07:26:25;71.30;;;36.67;;
53710;SDS011;39605;52.704;6.752;2023-11-18T07:28:51;78.30;;;39.70;;
53710;SDS011;39605;52.704;6.752;2023-11-18T07:31:17;74.45;;;40.35;;
53710;SDS011;39605;52.704;6.752;2023-11-18T07:33:47;72.50;;;40.33;;
53710;SDS011;39605;52.704;6.752;2023-11-18T07:36:17;84.15;;;40.83;;
53710;SDS011;39605;52.704;6.752;2023-11-18T07:38:47;82.63;;;40.42;;
53710;SDS011;39605;52.704;6.752;2023-11-18T07:41:13;82.68;;;41.90;;
53710;SDS011;39605;52.704;6.752;2023-11-18T07:43:49;78.55;;;41.20;;
53710;SDS011;39605;52.704;6.752;2023-11-18T07:46:16;83.82;;;41.42;;
53710;SDS011;39605;52.704;6.752;2023-11-18T07:48:42;75.55;;;40.63;;
53710;SDS011;39605;52.704;6.752;2023-11-18T07:51:08;76.95;;;42.22;;
53710;SDS011;39605;52.704;6.752;2023-11-18T07:53:37;80.43;;;40.28;;
53710;SDS011;39605;52.704;6.752;2023-11-18T07:56:04;84.68;;;42.53;;
53710;SDS011;39605;52.704;6.752;2023-11-18T07:58:32;82.15;;;42.47;;
53710;SDS011;39605;52.704;6.752;2023-11-18T08:01:02;75.00;;;41.22;;
53710;SDS011;39605;52.704;6.752;2023-11-18T08:03:32;77.90;;;40.45;;
53710;SDS011;39605;52.704;6.752;2023-11-18T08:05:58;79.97;;;42.92;;
53710;SDS011;39605;52.704;6.752;2023-11-18T08:08:24;79.88;;;42.28;;
53710;SDS011;39605;52.704;6.752;2023-11-18T08:10:50;86.35;;;43.90;;
53710;SDS011;39605;52.704;6.752;2023-11-18T08:13:16;74.50;;;41.40;;
53710;SDS011;39605;52.704;6.752;2023-11-18T08:15:43;78.20;;;42.88;;
53710;SDS011;39605;52.704;6.752;2023-11-18T08:18:12;75.13;;;40.30;;
53710;SDS011;39605;52.704;6.752;2023-11-18T08:20:38;73.28;;;40.47;;
53710;SDS011;39605;52.704;6.752;2023-11-18T08:23:05;71.70;;;38.80;;
53710;SDS011;39605;52.704;6.752;2023-11-18T08:25:31;75.50;;;41.75;;
53710;SDS011;39605;52.704;6.752;2023-11-18T08:28:01;76.20;;;41.35;;
53710;SDS011;39605;52.704;6.752;2023-11-18T08:30:27;67.65;;;37.13;;
53710;SDS011;39605;52.704;6.752;2023-11-18T08:32:53;67.00;;;38.55;;
53710;SDS011;39605;52.704;6.752;2023-11-18T08:35:19;68.20;;;38.42;;
53710;SDS011;39605;52.704;6.752;2023-11-18T08:37:46;74.28;;;40.40;;
53710;SDS011;39605;52.704;6.752;2023-11-18T08:40:13;63.75;;;39.42;;
53710;SDS011;39605;52.704;6.752;2023-11-18T08:42:51;67.68;;;39.17;;
53710;SDS011;39605;52.704;6.752;2023-11-18T08:47:52;62.75;;;37.22;;
53710;SDS011;39605;52.704;6.752;2023-11-18T08:50:18;63.55;;;38.20;;
53710;SDS011;39605;52.704;6.752;2023-11-18T08:52:49;62.92;;;38.10;;
53710;SDS011;39605;52.704;6.752;2023-11-18T08:55:18;57.97;;;35.55;;
53710;SDS011;39605;52.704;6.752;2023-11-18T08:58:03;61.13;;;36.67;;
53710;SDS011;39605;52.704;6.752;2023-11-18T09:00:40;59.60;;;34.83;;
53710;SDS011;39605;52.704;6.752;2023-11-18T09:03:10;57.72;;;34.35;;
53710;SDS011;39605;52.704;6.752;2023-11-18T09:05:43;60.22;;;35.90;;
53710;SDS011;39605;52.704;6.752;2023-11-18T09:08:22;52.20;;;34.00;;
53710;SDS011;39605;52.704;6.752;2023-11-18T09:10:49;53.15;;;34.25;;
53710;SDS011;39605;52.704;6.752;2023-11-18T09:13:19;60.47;;;34.15;;
53710;SDS011;39605;52.704;6.752;2023-11-18T09:15:46;47.50;;;31.10;;
53710;SDS011;39605;52.704;6.752;2023-11-18T09:18:12;51.58;;;32.13;;
53710;SDS011;39605;52.704;6.752;2023-11-18T09:20:38;50.33;;;32.53;;
53710;SDS011;39605;52.704;6.752;2023-11-18T09:23:05;47.67;;;30.95;;
53710;SDS011;39605;52.704;6.752;2023-11-18T09:25:32;47.53;;;30.40;;
53710;SDS011;39605;52.704;6.752;2023-11-18T09:27:58;49.65;;;31.80;;
53710;SDS011;39605;52.704;6.752;2023-11-18T09:30:25;46.10;;;31.33;;
53710;SDS011;39605;52.704;6.752;2023-11-18T09:32:51;50.03;;;31.23;;
53710;SDS011;39605;52.704;6.752;2023-11-18T09:35:19;56.28;;;33.00;;
53710;SDS011;39605;52.704;6.752;2023-11-18T09:37:45;49.83;;;30.75;;
53710;SDS011;39605;52.704;6.752;2023-11-18T09:40:15;43.47;;;28.25;;
53710;SDS011;39605;52.704;6.752;2023-11-18T09:42:43;42.97;;;29.50;;
53710;SDS011;39605;52.704;6.752;2023-11-18T09:45:09;45.75;;;29.02;;
53710;SDS011;39605;52.704;6.752;2023-11-18T09:47:45;44.50;;;29.05;;
53710;SDS011;39605;52.704;6.752;2023-11-18T09:50:18;39.90;;;27.20;;
53710;SDS011;39605;52.704;6.752;2023-11-18T09:52:49;43.92;;;29.75;;
53710;SDS011;39605;52.704;6.752;2023-11-18T09:55:25;42.05;;;28.42;;
53710;SDS011;39605;52.704;6.752;2023-11-18T09:57:55;45.90;;;29.48;;
53710;SDS011;39605;52.704;6.752;2023-11-18T10:00:24;37.45;;;28.25;;
53710;SDS011;39605;52.704;6.752;2023-11-18T10:02:53;39.22;;;28.40;;
53710;SDS011;39605;52.704;6.752;2023-11-18T10:05:22;38.38;;;26.92;;
53710;SDS011;39605;52.704;6.752;2023-11-18T10:07:51;41.88;;;28.85;;
53710;SDS011;39605;52.704;6.752;2023-11-18T10:10:18;44.08;;;28.02;;
53710;SDS011;39605;52.704;6.752;2023-11-18T10:12:49;38.95;;;27.83;;
53710;SDS011;39605;52.704;6.752;2023-11-18T10:15:23;45.38;;;30.58;;
53710;SDS011;39605;52.704;6.752;2023-11-18T10:17:49;37.33;;;27.05;;
53710;SDS011;39605;52.704;6.752;2023-11-18T10:20:58;36.17;;;25.00;;
53710;SDS011;39605;52.704;6.752;2023-11-18T10:23:18;39.55;;;27.88;;
53710;SDS011;39605;52.704;6.752;2023-11-18T10:25:50;35.95;;;26.30;;
53710;SDS011;39605;52.704;6.752;2023-11-18T10:28:24;40.75;;;27.75;;
53710;SDS011;39605;52.704;6.752;2023-11-18T10:30:52;41.13;;;28.23;;
53710;SDS011;39605;52.704;6.752;2023-11-18T10:33:18;41.28;;;27.17;;
53710;SDS011;39605;52.704;6.752;2023-11-18T10:35:48;43.92;;;27.52;;
53710;SDS011;39605;52.704;6.752;2023-11-18T10:38:20;41.13;;;29.55;;
53710;SDS011;39605;52.704;6.752;2023-11-18T10:40:52;39.00;;;27.65;;
53710;SDS011;39605;52.704;6.752;2023-11-18T10:43:20;43.25;;;27.88;;
53710;SDS011;39605;52.704;6.752;2023-11-18T10:45:52;33.40;;;24.38;;
53710;SDS011;39605;52.704;6.752;2023-11-18T10:48:19;41.53;;;27.67;;
53710;SDS011;39605;52.704;6.752;2023-11-18T10:50:49;36.85;;;26.77;;
53710;SDS011;39605;52.704;6.752;2023-11-18T10:53:16;39.78;;;26.98;;
53710;SDS011;39605;52.704;6.752;2023-11-18T10:55:43;41.03;;;28.35;;
53710;SDS011;39605;52.704;6.752;2023-11-18T10:58:10;41.75;;;27.23;;
53710;SDS011;39605;52.704;6.752;2023-11-18T11:00:46;41.42;;;28.80;;
53710;SDS011;39605;52.704;6.752;2023-11-18T11:03:20;34.83;;;24.45;;
53710;SDS011;39605;52.704;6.752;2023-11-18T11:05:49;30.13;;;23.65;;
53710;SDS011;39605;52.704;6.752;2023-11-18T11:08:15;35.15;;;24.33;;
53710;SDS011;39605;52.704;6.752;2023-11-18T11:10:44;40.67;;;25.40;;
53710;SDS011;39605;52.704;6.752;2023-11-18T11:13:10;36.13;;;24.75;;
53710;SDS011;39605;52.704;6.752;2023-11-18T11:15:40;37.85;;;25.25;;
53710;SDS011;39605;52.704;6.752;2023-11-18T11:18:14;35.67;;;25.58;;
53710;SDS011;39605;52.704;6.752;2023-11-18T11:20:53;33.80;;;24.20;;
53710;SDS011;39605;52.704;6.752;2023-11-18T11:23:21;34.42;;;24.98;;
53710;SDS011;39605;52.704;6.752;2023-11-18T11:26:02;33.17;;;24.45;;
53710;SDS011;39605;52.704;6.752;2023-11-18T11:28:37;35.42;;;24.55;;
53710;SDS011;39605;52.704;6.752;2023-11-18T11:31:17;38.22;;;26.58;;
53710;SDS011;39605;52.704;6.752;2023-11-18T11:36:20;32.97;;;23.15;;
53710;SDS011;39605;52.704;6.752;2023-11-18T11:38:49;36.72;;;24.55;;
53710;SDS011;39605;52.704;6.752;2023-11-18T11:41:16;33.92;;;24.27;;
53710;SDS011;39605;52.704;6.752;2023-11-18T11:43:51;33.33;;;24.67;;
53710;SDS011;39605;52.704;6.752;2023-11-18T11:46:23;33.63;;;23.92;;
53710;SDS011;39605;52.704;6.752;2023-11-18T11:48:52;33.85;;;25.42;;
53710;SDS011;39605;52.704;6.752;2023-11-18T11:53:47;35.45;;;24.33;;
53710;SDS011;39605;52.704;6.752;2023-11-18T11:56:17;36.28;;;25.27;;
53710;SDS011;39605;52.704;6.752;2023-11-18T11:58:49;33.80;;;24.05;;
53710;SDS011;39605;52.704;6.752;2023-11-18T12:03:54;31.05;;;20.05;;
53710;SDS011;39605;52.704;6.752;2023-11-18T12:06:23;33.95;;;23.25;;
53710;SDS011;39605;52.704;6.752;2023-11-18T12:08:52;30.70;;;22.55;;
53710;SDS011;39605;52.704;6.752;2023-11-18T12:11:19;34.42;;;23.83;;
53710;SDS011;39605;52.704;6.752;2023-11-18T12:14:01;33.05;;;21.45;;
53710;SDS011;39605;52.704;6.752;2023-11-18T12:21:54;31.90;;;18.02;;
53710;SDS011;39605;52.704;6.752;2023-11-18T12:24:20;31.33;;;20.10;;
53710;SDS011;39605;52.704;6.752;2023-11-18T12:26:47;30.20;;;21.30;;
53710;SDS011;39605;52.704;6.752;2023-11-18T12:29:33;30.25;;;22.05;;
53710;SDS011;39605;52.704;6.752;2023-11-18T12:31:59;32.05;;;22.60;;
53710;SDS011;39605;52.704;6.752;2023-11-18T12:34:52;29.38;;;22.13;;
53710;SDS011;39605;52.704;6.752;2023-11-18T12:37:22;30.42;;;21.52;;
53710;SDS011;39605;52.704;6.752;2023-11-18T12:40:02;31.65;;;21.92;;
53710;SDS011;39605;52.704;6.752;2023-11-18T12:42:59;34.08;;;22.20;;
53710;SDS011;39605;52.704;6.752;2023-11-18T12:47:53;28.73;;;20.70;;
53710;SDS011;39605;52.704;6.752;2023-11-18T12:50:23;34.08;;;23.23;;
53710;SDS011;39605;52.704;6.752;2023-11-18T12:52:51;36.05;;;22.15;;
53710;SDS011;39605;52.704;6.752;2023-11-18T12:55:17;32.67;;;22.02;;
53710;SDS011;39605;52.704;6.752;2023-11-18T12:57:46;36.53;;;21.35;;
53710;SDS011;39605;52.704;6.752;2023-11-18T13:00:13;33.78;;;20.75;;
53710;SDS011;39605;52.704;6.752;2023-11-18T13:02:42;30.83;;;21.10;;
53710;SDS011;39605;52.704;6.752;2023-11-18T13:05:08;31.38;;;20.88;;
53710;SDS011;39605;52.704;6.752;2023-11-18T13:07:35;32.20;;;20.95;;
53710;SDS011;39605;52.704;6.752;2023-11-18T13:10:02;34.95;;;21.80;;
53710;SDS011;39605;52.704;6.752;2023-11-18T13:12:29;34.85;;;21.85;;
53710;SDS011;39605;52.704;6.752;2023-11-18T13:14:55;31.67;;;21.20;;
53710;SDS011;39605;52.704;6.752;2023-11-18T13:17:22;30.10;;;18.67;;
53710;SDS011;39605;52.704;6.752;2023-11-18T13:19:48;28.33;;;19.80;;
53710;SDS011;39605;52.704;6.752;2023-11-18T13:22:19;30.35;;;20.23;;
53710;SDS011;39605;52.704;6.752;2023-11-18T13:24:45;30.02;;;20.92;;
53710;SDS011;39605;52.704;6.752;2023-11-18T13:27:15;24.98;;;18.63;;
53710;SDS011;39605;52.704;6.752;2023-11-18T13:29:45;30.33;;;20.50;;
53710;SDS011;39605;52.704;6.752;2023-11-18T13:32:14;28.13;;;20.70;;
53710;SDS011;39605;52.704;6.752;2023-11-18T13:34:40;31.45;;;20.92;;
53710;SDS011;39605;52.704;6.752;2023-11-18T13:37:07;33.78;;;20.10;;
53710;SDS011;39605;52.704;6.752;2023-11-18T13:39:36;30.38;;;21.88;;
53710;SDS011;39605;52.704;6.752;2023-11-18T13:42:22;27.33;;;20.65;;
53710;SDS011;39605;52.704;6.752;2023-11-18T13:44:49;26.77;;;17.05;;
53710;SDS011;39605;52.704;6.752;2023-11-18T13:47:19;32.13;;;22.13;;
53710;SDS011;39605;52.704;6.752;2023-11-18T13:49:45;30.15;;;21.13;;
53710;SDS011;39605;52.704;6.752;2023-11-18T13:52:12;34.22;;;22.27;;
53710;SDS011;39605;52.704;6.752;2023-11-18T13:54:41;29.40;;;19.17;;
53710;SDS011;39605;52.704;6.752;2023-11-18T13:57:10;31.48;;;22.73;;
53710;SDS011;39605;52.704;6.752;2023-11-18T13:59:37;27.95;;;17.98;;
53710;SDS011;39605;52.704;6.752;2023-11-18T14:02:08;31.80;;;19.73;;
53710;SDS011;39605;52.704;6.752;2023-11-18T14:04:35;34.00;;;21.80;;
53710;SDS011;39605;52.704;6.752;2023-11-18T14:07:03;32.78;;;21.17;;
53710;SDS011;39605;52.704;6.752;2023-11-18T14:09:30;26.42;;;20.17;;
53710;SDS011;39605;52.704;6.752;2023-11-18T14:12:01;30.02;;;20.33;;
53710;SDS011;39605;52.704;6.752;2023-11-18T14:14:27;36.05;;;22.13;;
53710;SDS011;39605;52.704;6.752;2023-11-18T14:16:54;27.00;;;20.55;;
53710;SDS011;39605;52.704;6.752;2023-11-18T14:19:24;31.50;;;20.65;;
53710;SDS011;39605;52.704;6.752;2023-11-18T14:21:53;29.35;;;18.92;;
53710;SDS011;39605;52.704;6.752;2023-11-18T14:24:20;28.50;;;15.80;;
53710;SDS011;39605;52.704;6.752;2023-11-18T14:26:52;30.00;;;21.90;;
53710;SDS011;39605;52.704;6.752;2023-11-18T14:29:19;31.55;;;20.58;;
53710;SDS011;39605;52.704;6.752;2023-11-18T14:31:45;28.35;;;19.35;;
53710;SDS011;39605;52.704;6.752;2023-11-18T14:34:11;28.38;;;19.95;;
53710;SDS011;39605;52.704;6.752;2023-11-18T14:36:37;32.55;;;20.83;;
53710;SDS011;39605;52.704;6.752;2023-11-18T14:39:04;25.20;;;17.58;;
53710;SDS011;39605;52.704;6.752;2023-11-18T14:41:30;29.35;;;19.52;;
53710;SDS011;39605;52.704;6.752;2023-11-18T14:43:56;31.27;;;20.52;;
53710;SDS011;39605;52.704;6.752;2023-11-18T14:46:23;28.30;;;20.75;;